Time;durP1;ratioP1;P1;durP2;ratioP2;P2;SDS_P1;SDS_P2;PMS_P1;PMS_P2;Temp;Humidity;BMP_temperature;BMP_pressure;BME280_temperature;BME280_humidity;BME280_pressure;Samples;Min_cycle;Max_cycle;Signal;HPM_P1;HPM_P2
2022/10/04 00:01:59;;;;;;;3.28;0.55;;;21.20;99.90;;;;;;5043164;28;20228;-78
2022/10/04 00:04:35;;;;;;;1.90;0.80;;;21.30;99.90;;;;;;5050145;28;20244;-79
2022/10/04 00:07:09;;;;;;;2.97;0.90;;;21.50;99.90;;;;;;5060909;28;20287;-78
2022/10/04 00:09:46;;;;;;;2.65;1.20;;;21.60;99.90;;;;;;5063964;28;20209;-78
2022/10/04 00:12:22;;;;;;;2.05;0.95;;;21.70;99.90;;;;;;5059434;28;20505;-79
2022/10/04 00:14:57;;;;;;;12.68;1.77;;;21.70;99.90;;;;;;5062814;28;20192;-78
2022/10/04 00:17:30;;;;;;;5.60;1.20;;;21.90;99.90;;;;;;5054089;28;20574;-78
2022/10/04 00:20:02;;;;;;;2.40;1.00;;;22.10;99.90;;;;;;5045911;28;20201;-79
2022/10/04 00:22:33;;;;;;;5.10;1.13;;;22.30;99.90;;;;;;5052321;28;20199;-79
2022/10/04 00:25:22;;;;;;;3.58;0.90;;;22.30;99.90;;;;;;5062305;28;20207;-79
2022/10/04 00:28:20;;;;;;;2.58;1.20;;;22.40;99.90;;;;;;5048481;28;20280;-79
2022/10/04 00:31:11;;;;;;;2.33;0.90;;;22.40;99.90;;;;;;5043212;28;20209;-79
2022/10/04 00:33:43;;;;;;;7.88;1.10;;;22.50;99.90;;;;;;5050502;28;20189;-79
2022/10/04 00:37:02;;;;;;;4.80;1.33;;;22.50;99.90;;;;;;5061437;28;20276;-80
2022/10/04 00:39:44;;;;;;;4.93;1.13;;;22.50;99.90;;;;;;4995955;28;20232;-82
2022/10/04 00:42:46;;;;;;;4.82;1.48;;;22.50;99.90;;;;;;5032772;28;20199;-83
2022/10/04 00:45:24;;;;;;;5.30;1.30;;;22.40;99.90;;;;;;5045428;28;20283;-82
2022/10/04 00:48:36;;;;;;;4.03;1.30;;;22.30;99.90;;;;;;5033201;28;20691;-82
2022/10/04 00:51:14;;;;;;;5.18;1.30;;;22.40;99.90;;;;;;5051213;28;20201;-82
2022/10/04 00:53:53;;;;;;;4.07;1.17;;;22.60;99.90;;;;;;5065183;28;20219;-82
2022/10/04 00:56:33;;;;;;;5.38;1.13;;;22.60;99.90;;;;;;5052630;28;20243;-82
2022/10/04 00:59:21;;;;;;;5.60;1.17;;;22.80;99.90;;;;;;5054090;28;20196;-82
2022/10/04 01:01:57;;;;;;;3.85;1.17;;;22.90;99.90;;;;;;5032195;28;20220;-82
2022/10/04 01:04:41;;;;;;;4.50;1.10;;;23.00;99.90;;;;;;5047894;28;20211;-82
2022/10/04 01:07:16;;;;;;;3.55;1.20;;;23.00;99.90;;;;;;5053077;28;20200;-82
2022/10/04 01:09:54;;;;;;;2.60;1.17;;;23.00;99.90;;;;;;5051365;28;20199;-82
2022/10/04 01:12:47;;;;;;;3.28;1.00;;;22.90;99.90;;;;;;5050675;28;20212;-82
2022/10/04 01:15:25;;;;;;;3.63;1.10;;;23.00;99.90;;;;;;5029725;28;20567;-83
2022/10/04 01:18:16;;;;;;;3.47;1.02;;;22.90;99.90;;;;;;5042659;28;20662;-82
2022/10/04 01:20:58;;;;;;;8.18;1.27;;;23.10;99.90;;;;;;5051410;28;20212;-82
2022/10/04 01:23:41;;;;;;;2.90;1.00;;;23.30;99.90;;;;;;5052288;28;20266;-82
2022/10/04 01:26:43;;;;;;;4.80;1.02;;;23.30;99.90;;;;;;5045614;28;20205;-82
2022/10/04 01:29:17;;;;;;;1.50;0.77;;;23.30;99.90;;;;;;5032636;28;20228;-82
2022/10/04 01:31:50;;;;;;;3.65;0.90;;;23.50;99.90;;;;;;5032727;28;20193;-83
2022/10/04 01:34:22;;;;;;;5.22;1.10;;;23.50;99.90;;;;;;5032606;28;20276;-82
2022/10/04 01:36:55;;;;;;;2.28;0.93;;;23.50;99.90;;;;;;5034005;28;20233;-82
2022/10/04 01:39:29;;;;;;;9.20;1.10;;;23.60;99.90;;;;;;5053093;28;20239;-82
2022/10/04 01:42:47;;;;;;;3.05;1.05;;;23.70;99.90;;;;;;5039663;28;20247;-82
2022/10/04 01:45:23;;;;;;;2.30;1.02;;;23.70;99.90;;;;;;5043834;28;20219;-82
2022/10/04 01:47:56;;;;;;;2.05;0.93;;;23.80;99.90;;;;;;5051635;28;20673;-81
2022/10/04 01:50:34;;;;;;;3.50;1.00;;;23.80;99.90;;;;;;5051434;28;20196;-81
2022/10/04 01:53:15;;;;;;;2.85;0.98;;;23.90;99.90;;;;;;5048226;28;20212;-82
2022/10/04 01:55:52;;;;;;;2.17;0.90;;;23.80;99.90;;;;;;5040544;28;20707;-81
2022/10/04 01:58:25;;;;;;;3.03;1.13;;;23.80;99.90;;;;;;5064762;28;20211;-81
2022/10/04 02:01:01;;;;;;;2.03;0.70;;;23.90;99.90;;;;;;5052182;28;20219;-80
2022/10/04 02:03:36;;;;;;;2.15;0.80;;;24.00;99.90;;;;;;5049950;28;20201;-81
2022/10/04 02:06:09;;;;;;;2.90;0.80;;;24.00;99.90;;;;;;5050259;28;20281;-80
2022/10/04 02:08:46;;;;;;;1.42;0.65;;;24.10;99.90;;;;;;5051209;28;20671;-80
2022/10/04 02:11:22;;;;;;;4.85;0.90;;;24.10;99.90;;;;;;5045596;28;20208;-81
2022/10/04 02:13:55;;;;;;;2.88;0.80;;;24.10;99.90;;;;;;5030891;28;20197;-81
2022/10/04 02:16:27;;;;;;;2.35;0.70;;;23.90;99.90;;;;;;5039939;28;20260;-81
2022/10/04 02:18:58;;;;;;;3.25;0.70;;;24.00;99.90;;;;;;5052113;28;20643;-81
2022/10/04 02:21:29;;;;;;;3.08;0.82;;;24.10;99.90;;;;;;5061779;28;20220;-82
2022/10/04 02:24:00;;;;;;;1.98;0.70;;;24.10;99.90;;;;;;5064757;28;20619;-81
2022/10/04 02:26:33;;;;;;;4.43;0.95;;;24.00;99.90;;;;;;5059123;28;20275;-81
2022/10/04 02:29:03;;;;;;;6.18;0.90;;;24.00;99.90;;;;;;5052226;28;20666;-81
2022/10/04 02:34:23;;;;;;;6.65;1.05;;;23.80;99.90;;;;;;5054095;28;20239;-81
2022/10/04 02:36:54;;;;;;;4.53;1.08;;;23.90;99.90;;;;;;5046267;28;20294;-81
2022/10/04 02:39:29;;;;;;;2.35;0.90;;;23.90;99.90;;;;;;5044041;28;20655;-81
2022/10/04 02:42:05;;;;;;;3.13;1.00;;;23.60;99.90;;;;;;5051017;28;20249;-82
2022/10/04 02:44:42;;;;;;;4.28;1.00;;;23.60;99.90;;;;;;5042712;28;20528;-82
2022/10/04 02:47:18;;;;;;;4.47;0.98;;;23.40;99.90;;;;;;5032693;28;20258;-82
2022/10/04 02:49:52;;;;;;;3.33;0.90;;;23.30;99.90;;;;;;5031486;28;20204;-81
2022/10/04 02:52:28;;;;;;;3.92;1.20;;;23.40;99.90;;;;;;5049733;28;20287;-82
2022/10/04 02:55:03;;;;;;;3.90;1.10;;;23.70;99.90;;;;;;5055346;28;20223;-82
2022/10/04 02:57:39;;;;;;;2.05;0.90;;;24.00;99.90;;;;;;5051461;28;20223;-83
2022/10/04 03:00:21;;;;;;;4.53;0.98;;;24.40;99.90;;;;;;5050902;28;20678;-82
2022/10/04 03:03:16;;;;;;;3.70;0.90;;;24.60;99.90;;;;;;5045725;28;20248;-83
2022/10/04 03:05:49;;;;;;;1.63;0.82;;;24.70;99.90;;;;;;5039321;28;20221;-84
2022/10/04 03:08:21;;;;;;;3.45;0.82;;;24.70;99.90;;;;;;5037611;28;20683;-83
2022/10/04 03:10:52;;;;;;;3.60;0.85;;;24.70;99.90;;;;;;5032162;28;20232;-83
2022/10/04 03:13:25;;;;;;;5.05;1.00;;;24.70;99.90;;;;;;5044330;28;20687;-83
2022/10/04 03:16:01;;;;;;;4.38;1.13;;;24.60;99.90;;;;;;5034109;28;20634;-83
2022/10/04 03:18:34;;;;;;;3.75;1.00;;;24.50;99.90;;;;;;5039392;28;20204;-82
2022/10/04 03:21:08;;;;;;;2.13;0.90;;;24.50;99.90;;;;;;5040402;28;20813;-83
2022/10/04 03:23:41;;;;;;;3.15;0.90;;;24.30;99.90;;;;;;5041759;28;20188;-82
2022/10/04 03:26:22;;;;;;;3.85;1.10;;;24.10;99.90;;;;;;5057916;28;20203;-82
2022/10/04 03:29:04;;;;;;;1.95;0.90;;;24.00;99.90;;;;;;5059134;28;20270;-81
2022/10/04 03:31:38;;;;;;;3.47;1.02;;;23.70;99.90;;;;;;5044782;28;20201;-84
2022/10/04 03:34:15;;;;;;;4.57;1.00;;;23.80;99.90;;;;;;5048567;28;20253;-83
2022/10/04 03:36:49;;;;;;;4.15;1.10;;;23.80;99.90;;;;;;5061416;28;20319;-82
2022/10/04 03:39:36;;;;;;;3.67;0.85;;;23.80;99.90;;;;;;5062453;28;20234;-82
2022/10/04 03:42:09;;;;;;;2.53;0.70;;;23.70;99.90;;;;;;5054419;28;20221;-83
2022/10/04 03:44:45;;;;;;;1.40;0.68;;;23.80;99.90;;;;;;5055639;28;20224;-81
2022/10/04 03:47:22;;;;;;;2.75;0.75;;;23.90;99.90;;;;;;5048442;28;20296;-82
2022/10/04 03:49:55;;;;;;;2.47;0.90;;;23.90;99.90;;;;;;5041764;28;20201;-81
2022/10/04 03:52:29;;;;;;;5.35;0.75;;;23.90;99.90;;;;;;5034357;28;20610;-82
2022/10/04 03:55:02;;;;;;;1.98;1.02;;;23.90;99.90;;;;;;5054017;28;20255;-82
2022/10/04 03:57:34;;;;;;;2.10;0.70;;;23.80;99.90;;;;;;5052141;28;20252;-83
2022/10/04 04:00:08;;;;;;;4.13;1.00;;;23.60;99.90;;;;;;5054405;28;20197;-89
2022/10/04 04:02:45;;;;;;;1.95;0.80;;;23.70;99.90;;;;;;5055148;28;20196;-83
2022/10/04 04:05:21;;;;;;;0.93;0.50;;;23.70;99.90;;;;;;5053548;28;20204;-84
2022/10/04 04:08:01;;;;;;;1.10;0.75;;;23.70;99.90;;;;;;5054425;28;20247;-83
2022/10/04 04:10:33;;;;;;;4.38;1.13;;;23.70;99.90;;;;;;5052946;28;20201;-83
2022/10/04 04:13:08;;;;;;;2.67;1.15;;;23.70;99.90;;;;;;5034445;28;20660;-83
2022/10/04 04:15:46;;;;;;;2.75;0.90;;;23.70;99.90;;;;;;5032820;28;20224;-84
2022/10/04 04:18:21;;;;;;;1.83;0.73;;;23.70;99.90;;;;;;5033418;28;20270;-84
2022/10/04 04:20:57;;;;;;;3.22;0.70;;;23.60;99.90;;;;;;5051048;28;20286;-82
2022/10/04 04:23:32;;;;;;;1.42;0.70;;;23.70;99.90;;;;;;5055298;28;20196;-83
2022/10/04 04:26:15;;;;;;;4.57;0.90;;;23.70;99.90;;;;;;5055569;28;20196;-83
2022/10/04 04:28:50;;;;;;;2.75;0.80;;;23.70;99.90;;;;;;5046042;28;20274;-83
2022/10/04 04:31:25;;;;;;;6.22;1.00;;;23.70;99.90;;;;;;5053036;28;20185;-83
2022/10/04 04:34:03;;;;;;;2.58;1.00;;;23.70;99.90;;;;;;5053322;28;20200;-83
2022/10/04 04:36:40;;;;;;;2.78;0.70;;;23.80;99.90;;;;;;5053650;28;20323;-83
2022/10/04 04:42:07;;;;;;;2.40;1.00;;;23.80;99.90;;;;;;5053228;28;20239;-84
2022/10/04 04:44:40;;;;;;;5.65;1.08;;;23.70;99.90;;;;;;5043319;28;20235;-81
2022/10/04 04:47:39;;;;;;;4.40;1.08;;;23.80;99.90;;;;;;5036302;28;20261;-82
2022/10/04 04:50:24;;;;;;;2.58;1.00;;;23.70;99.90;;;;;;5037999;28;20208;-83
2022/10/04 04:52:57;;;;;;;3.17;1.00;;;23.70;99.90;;;;;;5037091;28;20635;-82
2022/10/04 04:55:36;;;;;;;4.78;1.00;;;23.50;99.90;;;;;;5041491;28;20221;-82
2022/10/04 04:58:13;;;;;;;4.65;1.23;;;23.40;99.90;;;;;;5048513;28;20228;-80
2022/10/04 05:00:45;;;;;;;4.32;1.00;;;23.30;99.90;;;;;;5055477;28;20212;-80
2022/10/04 05:03:25;;;;;;;3.20;1.00;;;23.20;99.90;;;;;;5067833;28;20234;-81
2022/10/04 05:06:03;;;;;;;5.55;1.25;;;23.00;99.90;;;;;;5041127;28;20230;-82
2022/10/04 05:08:36;;;;;;;3.55;0.90;;;23.00;99.90;;;;;;5039732;28;20556;-82
2022/10/04 05:11:22;;;;;;;2.42;0.80;;;22.90;99.90;;;;;;5039634;28;20197;-83
2022/10/04 05:13:58;;;;;;;3.30;0.50;;;22.70;99.90;;;;;;5037849;28;20856;-82
2022/10/04 05:16:36;;;;;;;1.67;0.73;;;22.60;99.90;;;;;;5049297;28;20259;-82
2022/10/04 05:19:15;;;;;;;3.28;0.88;;;22.40;99.90;;;;;;5034615;28;20201;-81
2022/10/04 05:21:47;;;;;;;3.50;0.80;;;22.40;99.90;;;;;;5034740;28;20288;-80
2022/10/04 05:24:28;;;;;;;4.68;1.02;;;22.30;99.90;;;;;;5055509;28;20207;-81
2022/10/04 05:27:15;;;;;;;2.72;0.93;;;22.20;99.90;;;;;;5061865;28;20283;-80
2022/10/04 05:30:02;;;;;;;0.80;0.50;;;22.10;99.90;;;;;;5055371;28;20192;-81
2022/10/04 05:32:42;;;;;;;0.90;0.50;;;22.10;99.90;;;;;;5056136;28;20216;-81
2022/10/04 05:35:21;;;;;;;3.42;0.63;;;22.10;99.90;;;;;;5054956;28;20204;-79
2022/10/04 05:38:10;;;;;;;4.50;0.63;;;22.00;99.90;;;;;;5058835;28;20760;-81
2022/10/04 05:40:54;;;;;;;2.60;0.63;;;21.90;99.90;;;;;;5057442;28;20207;-79
2022/10/04 05:46:34;;;;;;;2.60;0.70;;;21.70;99.90;;;;;;5047263;28;20207;-79
2022/10/04 05:49:09;;;;;;;2.90;0.80;;;21.70;99.90;;;;;;5051487;28;20204;-79
2022/10/04 05:51:54;;;;;;;1.95;0.80;;;21.70;99.90;;;;;;5049316;28;20204;-78
2022/10/04 05:54:26;;;;;;;2.38;0.65;;;21.60;99.90;;;;;;5051587;28;20228;-80
2022/10/04 05:57:26;;;;;;;2.72;1.02;;;21.50;99.90;;;;;;5051149;28;20220;-80
2022/10/04 06:00:16;;;;;;;2.25;0.60;;;21.50;99.90;;;;;;5051956;28;20258;-79
2022/10/04 06:03:15;;;;;;;3.88;1.05;;;21.40;99.90;;;;;;5051659;28;20197;-79
2022/10/04 06:05:53;;;;;;;3.00;0.70;;;21.40;99.90;;;;;;5050534;28;20204;-79
2022/10/04 06:08:38;;;;;;;1.52;0.70;;;21.30;99.90;;;;;;5051107;28;20295;-79
2022/10/04 06:11:22;;;;;;;1.08;0.70;;;21.20;99.90;;;;;;5031792;28;20193;-79
2022/10/04 06:14:22;;;;;;;2.45;0.60;;;21.20;99.90;;;;;;5031300;28;20737;-79
2022/10/04 06:17:21;;;;;;;2.83;0.60;;;21.20;99.90;;;;;;5031219;28;20208;-79
2022/10/04 06:20:14;;;;;;;2.85;0.70;;;21.10;99.90;;;;;;5031982;28;20288;-79
2022/10/04 06:22:48;;;;;;;2.50;0.85;;;21.10;99.90;;;;;;5051629;28;20193;-79
2022/10/04 06:25:26;;;;;;;1.90;0.60;;;21.10;99.90;;;;;;5050933;28;20678;-78
2022/10/04 06:28:02;;;;;;;1.20;0.70;;;21.00;99.90;;;;;;5031244;28;20684;-79
2022/10/04 06:30:42;;;;;;;1.38;0.60;;;21.00;99.90;;;;;;5030996;28;20203;-79
2022/10/04 06:33:33;;;;;;;1.60;0.57;;;21.10;99.90;;;;;;5044809;28;20567;-79
2022/10/04 06:36:33;;;;;;;2.13;0.73;;;21.00;99.90;;;;;;5045007;28;20201;-78
2022/10/04 06:39:29;;;;;;;1.17;0.50;;;20.90;99.90;;;;;;5045281;28;20297;-79
2022/10/04 06:42:32;;;;;;;1.45;0.50;;;21.00;99.90;;;;;;5033798;28;20197;-79
2022/10/04 06:45:34;;;;;;;0.90;0.50;;;21.00;99.90;;;;;;5031917;28;20190;-80
2022/10/04 06:48:33;;;;;;;1.00;0.75;;;20.90;99.90;;;;;;5024583;28;20207;-79
2022/10/04 06:51:11;;;;;;;1.83;0.70;;;20.90;99.90;;;;;;5051619;28;20200;-78
2022/10/04 06:53:52;;;;;;;1.67;0.55;;;20.90;99.90;;;;;;5043488;28;20200;-80
2022/10/04 06:56:34;;;;;;;2.13;0.80;;;20.80;99.90;;;;;;5058312;28;20223;-79
2022/10/04 06:59:21;;;;;;;1.95;0.80;;;20.80;99.90;;;;;;5049742;28;20212;-79
2022/10/04 07:01:55;;;;;;;1.20;0.70;;;20.80;99.90;;;;;;5054340;28;20196;-78
2022/10/04 07:04:33;;;;;;;1.80;0.70;;;20.70;99.90;;;;;;5074333;28;20550;-78
2022/10/04 07:07:34;;;;;;;1.45;0.63;;;20.70;99.90;;;;;;5075924;28;20278;-79
2022/10/04 07:10:28;;;;;;;1.83;0.70;;;20.70;99.90;;;;;;5059369;28;20585;-79
2022/10/04 07:13:22;;;;;;;1.10;0.70;;;20.70;99.90;;;;;;5054980;28;20258;-79
2022/10/04 07:16:02;;;;;;;1.75;0.80;;;20.70;99.90;;;;;;5053366;28;20663;-79
2022/10/04 07:18:39;;;;;;;1.23;0.70;;;20.60;99.90;;;;;;5037976;28;20707;-79
2022/10/04 07:21:12;;;;;;;1.60;0.98;;;20.60;99.90;;;;;;5034326;28;20259;-79
2022/10/04 07:23:51;;;;;;;1.27;0.73;;;20.50;99.90;;;;;;5034749;28;20204;-80
2022/10/04 07:26:30;;;;;;;3.92;0.82;;;20.50;99.90;;;;;;5043219;28;20213;-78
2022/10/04 07:29:22;;;;;;;1.15;0.85;;;20.50;99.90;;;;;;5049890;28;20189;-79
2022/10/04 07:32:09;;;;;;;1.90;0.82;;;20.40;99.90;;;;;;5040453;28;20196;-78
2022/10/04 07:34:45;;;;;;;0.82;0.80;;;20.40;99.90;;;;;;5045661;28;20202;-78
2022/10/04 07:37:17;;;;;;;2.25;1.00;;;20.40;99.90;;;;;;5050118;28;20184;-77
2022/10/04 07:39:56;;;;;;;1.25;0.77;;;20.30;99.90;;;;;;5054332;28;20200;-77
2022/10/04 07:42:32;;;;;;;2.03;1.00;;;20.30;99.90;;;;;;5049020;28;20200;-78
2022/10/04 07:45:12;;;;;;;1.23;0.80;;;20.30;99.90;;;;;;5046977;28;20190;-78
2022/10/04 07:47:44;;;;;;;2.00;0.95;;;20.30;99.90;;;;;;5042901;28;20203;-78
2022/10/04 07:50:27;;;;;;;1.17;0.82;;;20.20;99.90;;;;;;5053519;28;20207;-78
2022/10/04 07:53:04;;;;;;;1.35;0.80;;;20.20;99.90;;;;;;5038561;28;20196;-76
2022/10/04 07:55:48;;;;;;;2.25;1.05;;;20.10;99.90;;;;;;5051921;28;20228;-77
2022/10/04 07:58:27;;;;;;;2.08;0.90;;;20.10;99.90;;;;;;5049182;28;20228;-76
2022/10/04 08:01:02;;;;;;;2.97;0.93;;;20.10;99.90;;;;;;5042493;28;20675;-76
2022/10/04 08:04:00;;;;;;;3.13;1.30;;;20.00;99.90;;;;;;5016707;28;20244;-76
2022/10/04 08:06:38;;;;;;;1.33;0.80;;;19.90;99.90;;;;;;5015406;28;20194;-77
2022/10/04 08:09:29;;;;;;;2.30;0.80;;;19.90;99.90;;;;;;5031325;28;20231;-76
2022/10/04 08:12:12;;;;;;;1.92;1.05;;;19.90;99.90;;;;;;5038598;28;20196;-76
2022/10/04 08:15:09;;;;;;;1.38;0.68;;;19.90;99.90;;;;;;5035389;28;20190;-77
2022/10/04 08:17:50;;;;;;;2.83;1.23;;;19.80;99.90;;;;;;5019754;28;20241;-75
2022/10/04 08:20:46;;;;;;;1.85;1.20;;;19.80;99.90;;;;;;5016252;28;20213;-76
2022/10/04 08:23:53;;;;;;;3.05;1.00;;;19.80;99.90;;;;;;5013581;28;20252;-76
2022/10/04 08:26:51;;;;;;;1.67;1.08;;;19.80;99.90;;;;;;5013823;28;20684;-76
2022/10/04 08:29:43;;;;;;;1.15;1.05;;;19.80;99.90;;;;;;5013148;28;20236;-75
2022/10/04 08:32:44;;;;;;;1.70;1.10;;;19.80;99.90;;;;;;5030002;28;20202;-74
2022/10/04 08:35:41;;;;;;;2.70;1.20;;;19.80;99.90;;;;;;5042288;28;20196;-74
2022/10/04 08:38:36;;;;;;;1.63;0.90;;;19.80;99.90;;;;;;5016056;28;20226;-74
2022/10/04 08:41:44;;;;;;;3.80;1.10;;;19.80;99.90;;;;;;5013903;28;20204;-74
2022/10/04 08:44:59;;;;;;;1.52;0.93;;;19.80;99.90;;;;;;4999222;28;20213;-75
2022/10/04 08:48:04;;;;;;;2.05;1.00;;;19.80;99.90;;;;;;5021358;28;20202;-74
2022/10/04 08:51:07;;;;;;;2.42;0.77;;;19.80;99.90;;;;;;5013050;28;20248;-74
2022/10/04 08:54:26;;;;;;;1.55;0.90;;;19.80;99.90;;;;;;5017123;28;20208;-74
2022/10/04 08:57:29;;;;;;;2.05;0.80;;;19.80;99.90;;;;;;5026519;28;20205;-73
2022/10/04 09:00:18;;;;;;;2.45;0.90;;;19.80;99.90;;;;;;5019459;28;20209;-73
2022/10/04 09:03:15;;;;;;;1.83;1.10;;;19.70;99.90;;;;;;5032441;28;20201;-74
2022/10/04 09:06:09;;;;;;;2.03;0.90;;;19.70;99.90;;;;;;5032113;28;20616;-74
2022/10/04 09:09:15;;;;;;;1.48;0.90;;;19.70;99.90;;;;;;5032187;28;20227;-74
2022/10/04 09:12:06;;;;;;;2.78;0.93;;;19.70;99.90;;;;;;5010412;28;20198;-74
2022/10/04 09:15:02;;;;;;;1.20;1.00;;;19.70;99.90;;;;;;5012311;28;20198;-74
2022/10/04 09:17:46;;;;;;;1.33;1.10;;;19.70;99.90;;;;;;5011594;28;20279;-75
2022/10/04 09:20:34;;;;;;;3.67;1.10;;;19.60;99.90;;;;;;5012367;28;20205;-74
2022/10/04 09:23:24;;;;;;;2.08;1.05;;;19.60;99.90;;;;;;5012309;28;20205;-75
2022/10/04 09:26:09;;;;;;;1.10;1.00;;;19.60;99.90;;;;;;5014686;28;20209;-75
2022/10/04 09:29:13;;;;;;;1.23;1.00;;;19.70;99.90;;;;;;5031941;28;20197;-74
2022/10/04 09:32:27;;;;;;;1.73;1.10;;;19.70;99.90;;;;;;5011661;28;20198;-74
2022/10/04 09:35:30;;;;;;;1.17;1.08;;;19.70;99.90;;;;;;4981686;28;20253;-74
2022/10/04 09:38:31;;;;;;;2.28;1.20;;;19.70;99.90;;;;;;5013095;28;20221;-73
2022/10/04 09:41:33;;;;;;;0.80;0.80;;;19.70;99.90;;;;;;5012132;28;20198;-74
2022/10/04 09:44:45;;;;;;;2.08;1.13;;;19.70;99.90;;;;;;5012237;28;20201;-74
2022/10/04 09:47:36;;;;;;;1.95;1.20;;;19.70;99.90;;;;;;5012100;28;20281;-75
2022/10/04 09:50:38;;;;;;;1.52;1.05;;;19.70;99.90;;;;;;5027418;28;20197;-76
2022/10/04 09:53:26;;;;;;;1.52;1.00;;;19.70;99.90;;;;;;5031325;28;20251;-75
2022/10/04 09:56:49;;;;;;;4.95;1.30;;;19.70;99.90;;;;;;5023479;28;20229;-75
2022/10/04 09:59:40;;;;;;;1.75;1.10;;;19.60;99.90;;;;;;5031536;28;20235;-75
2022/10/04 10:02:42;;;;;;;2.88;1.35;;;19.60;99.90;;;;;;5031505;28;20726;-76
2022/10/04 10:05:32;;;;;;;3.28;1.10;;;19.60;99.90;;;;;;5040155;28;20200;-75
2022/10/04 10:08:14;;;;;;;3.45;1.30;;;19.60;99.90;;;;;;5030956;28;20211;-75
2022/10/04 10:14:25;;;;;;;1.55;1.08;;;19.60;99.90;;;;;;4989916;28;20569;-76
2022/10/04 10:17:04;;;;;;;1.52;0.98;;;19.60;99.90;;;;;;4989695;28;20195;-75
2022/10/04 10:20:23;;;;;;;1.48;1.10;;;19.60;99.90;;;;;;5038047;28;20251;-75
2022/10/04 10:23:37;;;;;;;2.33;0.80;;;19.70;99.90;;;;;;5014002;28;20201;-75
2022/10/04 10:26:38;;;;;;;2.40;1.02;;;19.70;99.90;;;;;;5031333;28;20771;-75
2022/10/04 10:29:32;;;;;;;1.23;0.93;;;19.60;99.90;;;;;;5028908;28;20668;-75
2022/10/04 10:32:25;;;;;;;1.75;1.00;;;19.60;99.90;;;;;;5031855;28;20197;-75
2022/10/04 10:35:17;;;;;;;3.35;1.05;;;19.60;99.90;;;;;;5031056;28;20197;-75
2022/10/04 10:38:12;;;;;;;2.15;1.05;;;19.50;99.90;;;;;;5031114;28;20278;-75
2022/10/04 10:41:00;;;;;;;3.40;1.08;;;19.50;99.90;;;;;;5036194;28;20196;-76
2022/10/04 10:44:03;;;;;;;3.45;1.20;;;19.50;99.90;;;;;;5051390;28;20196;-76
2022/10/04 10:46:51;;;;;;;2.13;1.10;;;19.50;99.90;;;;;;5053797;28;20224;-75
2022/10/04 10:49:45;;;;;;;1.10;0.70;;;19.50;99.90;;;;;;5054968;28;20698;-76
2022/10/04 10:52:52;;;;;;;2.70;1.08;;;19.50;99.90;;;;;;5061139;28;20193;-77
2022/10/04 10:56:07;;;;;;;1.77;0.82;;;19.50;99.90;;;;;;5074083;28;20242;-76
2022/10/04 10:59:22;;;;;;;1.10;0.73;;;19.50;99.90;;;;;;5058560;28;20306;-76
2022/10/04 11:02:37;;;;;;;2.60;1.17;;;19.50;99.90;;;;;;5056397;28;20260;-76
2022/10/04 11:05:49;;;;;;;3.65;1.30;;;19.50;99.90;;;;;;5023256;28;20571;-76
2022/10/04 11:08:49;;;;;;;2.30;1.00;;;19.50;99.90;;;;;;5013469;28;20223;-77
2022/10/04 11:14:56;;;;;;;1.27;0.80;;;19.50;99.90;;;;;;5134800;27;20835;-77
2022/10/04 11:17:51;;;;;;;1.98;0.90;;;19.50;99.90;;;;;;5078254;28;20641;-76
2022/10/04 11:20:58;;;;;;;3.25;1.08;;;19.50;99.90;;;;;;5102798;28;20186;-77
2022/10/04 11:24:03;;;;;;;2.45;1.13;;;19.60;99.90;;;;;;5095536;28;20195;-76
2022/10/04 11:27:06;;;;;;;3.35;1.02;;;19.50;99.90;;;;;;5109722;28;20187;-77
2022/10/04 11:30:01;;;;;;;3.10;0.90;;;19.50;99.90;;;;;;5099122;28;20248;-78
2022/10/04 11:33:08;;;;;;;1.50;0.82;;;19.50;99.90;;;;;;5114076;28;20226;-76
2022/10/04 11:36:06;;;;;;;1.98;0.75;;;19.50;99.90;;;;;;5114647;28;20205;-78
2022/10/04 11:39:02;;;;;;;3.05;0.90;;;19.50;99.90;;;;;;5104754;28;20196;-76
2022/10/04 11:41:49;;;;;;;3.40;1.30;;;19.50;99.90;;;;;;5097257;28;20202;-77
2022/10/04 11:45:05;;;;;;;1.58;1.00;;;19.50;99.90;;;;;;5117230;28;20205;-76
2022/10/04 11:47:59;;;;;;;1.35;0.90;;;19.50;99.90;;;;;;5095371;28;20229;-77
2022/10/04 11:50:59;;;;;;;1.95;0.73;;;19.50;99.90;;;;;;5118208;28;20194;-77
2022/10/04 11:53:51;;;;;;;1.50;0.52;;;19.50;99.90;;;;;;5094485;28;20229;-77
2022/10/04 11:56:47;;;;;;;0.75;0.70;;;19.50;99.90;;;;;;5094749;28;20202;-77
2022/10/04 11:59:39;;;;;;;1.45;1.00;;;19.50;99.90;;;;;;5113852;28;20199;-77
2022/10/04 12:02:45;;;;;;;2.13;1.00;;;19.50;99.90;;;;;;5105789;28;20226;-78
2022/10/04 12:05:49;;;;;;;2.67;0.73;;;19.50;99.90;;;;;;5126029;27;20266;-77
2022/10/04 12:08:46;;;;;;;1.60;0.70;;;19.50;99.90;;;;;;5092639;28;20199;-77
2022/10/04 12:14:49;;;;;;;1.77;0.80;;;19.50;99.90;;;;;;5108655;28;20754;-77
2022/10/04 12:18:06;;;;;;;0.95;0.80;;;19.50;99.90;;;;;;5114796;28;20190;-78
2022/10/04 12:21:04;;;;;;;1.77;0.85;;;19.50;99.90;;;;;;5043586;28;20200;-78
2022/10/04 12:24:05;;;;;;;2.08;0.70;;;19.50;99.90;;;;;;5116932;28;20711;-77
2022/10/04 12:27:03;;;;;;;1.45;0.70;;;19.40;99.90;;;;;;5070277;28;20194;-76
2022/10/04 12:30:08;;;;;;;2.92;0.88;;;19.40;99.90;;;;;;5092063;28;20191;-77
2022/10/04 12:32:52;;;;;;;1.80;0.85;;;19.40;99.90;;;;;;5090776;28;20254;-77
2022/10/04 12:35:32;;;;;;;1.63;0.90;;;19.40;99.90;;;;;;5114908;28;20183;-77
2022/10/04 12:38:38;;;;;;;1.38;0.80;;;19.40;99.90;;;;;;5096821;28;20207;-78
2022/10/04 12:41:22;;;;;;;1.63;0.90;;;19.40;99.90;;;;;;5082226;28;20658;-78
2022/10/04 12:44:08;;;;;;;1.77;0.63;;;19.40;99.90;;;;;;5083912;28;20203;-77
2022/10/04 12:46:52;;;;;;;2.20;0.85;;;19.40;99.90;;;;;;5095200;28;20201;-77
2022/10/04 12:49:33;;;;;;;1.00;0.75;;;19.50;99.90;;;;;;5094953;28;20252;-77
2022/10/04 12:52:10;;;;;;;1.83;0.80;;;19.50;99.90;;;;;;5099894;28;20699;-78
2022/10/04 12:54:46;;;;;;;0.90;0.70;;;19.40;99.90;;;;;;5095088;28;20211;-77
2022/10/04 12:57:44;;;;;;;1.38;0.75;;;19.40;99.90;;;;;;5087902;28;20245;-77
2022/10/04 13:00:23;;;;;;;4.85;0.90;;;19.40;99.90;;;;;;5089931;28;20196;-76
2022/10/04 13:03:05;;;;;;;1.63;0.80;;;19.40;99.90;;;;;;5086186;28;20254;-77
2022/10/04 13:05:46;;;;;;;1.35;0.90;;;19.40;99.90;;;;;;5074467;28;20190;-78
2022/10/04 13:08:41;;;;;;;1.05;0.60;;;19.40;99.90;;;;;;5074954;28;20353;-78
2022/10/04 13:11:39;;;;;;;2.40;1.00;;;19.30;99.90;;;;;;5073557;28;20200;-77
2022/10/04 13:14:30;;;;;;;1.42;0.90;;;19.40;99.90;;;;;;5076237;28;20232;-78
2022/10/04 13:17:10;;;;;;;0.60;0.50;;;19.40;99.90;;;;;;5077118;28;20584;-77
2022/10/04 13:19:51;;;;;;;1.00;0.60;;;19.30;99.90;;;;;;5073266;28;20191;-77
2022/10/04 13:22:50;;;;;;;1.30;0.70;;;19.30;99.90;;;;;;5076114;28;20188;-77
2022/10/04 13:25:37;;;;;;;1.58;0.90;;;19.30;99.90;;;;;;5068667;28;20195;-77
2022/10/04 13:28:21;;;;;;;0.70;0.60;;;19.30;99.90;;;;;;5090476;28;20191;-77
2022/10/04 13:31:00;;;;;;;1.10;0.63;;;19.40;99.90;;;;;;5074689;28;20199;-78
2022/10/04 13:33:40;;;;;;;1.05;0.50;;;19.40;99.90;;;;;;5082287;28;20598;-77
2022/10/04 13:36:18;;;;;;;2.80;0.68;;;19.40;99.90;;;;;;5092054;28;20195;-77
2022/10/04 13:39:21;;;;;;;1.20;0.60;;;19.40;99.90;;;;;;5086505;28;20201;-78
2022/10/04 13:42:18;;;;;;;1.88;0.75;;;19.30;99.90;;;;;;5091968;28;20202;-77
2022/10/04 13:45:05;;;;;;;1.08;0.70;;;19.30;99.90;;;;;;5068467;28;20191;-77
2022/10/04 13:48:01;;;;;;;3.38;0.90;;;19.30;99.90;;;;;;5110432;28;20202;-77
2022/10/04 13:50:44;;;;;;;1.60;0.80;;;19.30;99.90;;;;;;5073730;28;20200;-76
2022/10/04 13:56:44;;;;;;;0.70;0.40;;;19.30;99.90;;;;;;5087200;28;20583;-76
2022/10/04 13:59:23;;;;;;;1.67;0.60;;;19.20;99.90;;;;;;5081582;28;20195;-75
2022/10/04 14:02:23;;;;;;;1.85;0.70;;;19.20;99.90;;;;;;5092207;28;20234;-76
2022/10/04 14:05:33;;;;;;;0.75;0.60;;;19.30;99.90;;;;;;5084014;28;20203;-77
2022/10/04 14:08:50;;;;;;;2.95;0.80;;;19.30;99.90;;;;;;5060547;28;20196;-77
2022/10/04 14:11:51;;;;;;;2.25;0.70;;;19.20;99.90;;;;;;5085880;28;20191;-77
2022/10/04 14:14:57;;;;;;;1.65;0.57;;;19.10;99.90;;;;;;5090001;28;20241;-77
2022/10/04 14:18:02;;;;;;;3.20;0.80;;;19.10;99.90;;;;;;5086749;28;20194;-78
2022/10/04 14:21:05;;;;;;;2.95;0.85;;;19.00;99.90;;;;;;5082447;28;20235;-78
2022/10/04 14:24:16;;;;;;;2.67;0.70;;;19.00;99.90;;;;;;5083339;28;20248;-77
2022/10/04 14:27:21;;;;;;;2.22;0.80;;;19.00;99.90;;;;;;5089444;28;20336;-77
2022/10/04 14:30:11;;;;;;;2.72;0.93;;;19.00;99.90;;;;;;5083951;28;20666;-78
2022/10/04 14:33:19;;;;;;;1.23;0.50;;;19.00;99.90;;;;;;5088872;28;20199;-78
2022/10/04 14:35:59;;;;;;;1.80;0.60;;;19.00;99.90;;;;;;5091844;28;20614;-78
2022/10/04 14:38:54;;;;;;;1.48;0.60;;;19.00;99.90;;;;;;5091258;28;20195;-78
2022/10/04 14:41:44;;;;;;;2.45;0.68;;;19.00;99.90;;;;;;5085553;28;20199;-78
2022/10/04 14:44:51;;;;;;;2.72;1.00;;;18.90;99.90;;;;;;5089135;28;20199;-78
2022/10/04 14:48:01;;;;;;;1.83;0.80;;;19.00;99.90;;;;;;5078957;28;20187;-78
2022/10/04 14:50:40;;;;;;;2.42;0.80;;;18.90;99.90;;;;;;5093776;28;20179;-78
2022/10/04 14:53:23;;;;;;;1.98;1.08;;;18.90;99.90;;;;;;5072261;28;20216;-79